createdAt,value
2019-03-13T00:02:29.411Z,63.68
2019-03-13T00:04:57.307Z,63.87
2019-03-13T00:07:25.026Z,63.58
2019-03-13T00:09:52.793Z,63.56
2019-03-13T00:12:20.498Z,63.52
2019-03-13T00:14:48.451Z,63.73
2019-03-13T00:17:16.455Z,63.17
2019-03-13T00:19:44.351Z,63.30
2019-03-13T00:22:12.261Z,63.35
2019-03-13T00:24:40.244Z,63.59
2019-03-13T00:27:08.262Z,63.68
2019-03-13T00:29:37.001Z,63.38
2019-03-13T00:32:06.768Z,63.40
2019-03-13T00:34:34.855Z,63.38
2019-03-13T00:37:02.935Z,63.19
2019-03-13T00:39:31.018Z,63.18
2019-03-13T00:41:59.039Z,62.90
2019-03-13T00:44:27.126Z,62.64
2019-03-13T00:46:55.143Z,61.85
2019-03-13T00:49:23.394Z,62.02
2019-03-13T00:51:51.420Z,61.73
2019-03-13T00:54:19.502Z,60.84
2019-03-13T00:56:47.420Z,61.30
2019-03-13T00:59:15.522Z,61.07
2019-03-13T01:01:50.010Z,61.55
2019-03-13T01:04:40.781Z,61.40
2019-03-13T01:07:10.226Z,61.26
2019-03-13T01:09:38.367Z,61.36
2019-03-13T01:12:06.893Z,61.06
2019-03-13T01:14:35.726Z,61.06
2019-03-13T01:17:04.480Z,60.71
2019-03-13T01:19:32.472Z,60.49
2019-03-13T01:22:00.512Z,60.75
2019-03-13T01:24:28.731Z,60.83
2019-03-13T01:26:56.793Z,61.11
2019-03-13T01:29:28.848Z,61.35
2019-03-13T01:32:19.132Z,61.73
2019-03-13T01:34:55.270Z,62.04
2019-03-13T01:37:23.299Z,62.33
2019-03-13T01:39:51.216Z,62.30
2019-03-13T01:42:19.320Z,62.53
2019-03-13T01:44:47.244Z,62.48
2019-03-13T01:47:15.219Z,62.62
2019-03-13T01:49:43.192Z,62.66
2019-03-13T01:52:11.270Z,63.17
2019-03-13T01:54:39.508Z,63.48
2019-03-13T01:57:07.434Z,63.55
2019-03-13T01:59:35.472Z,63.68
2019-03-13T02:02:03.682Z,63.67
2019-03-13T02:04:31.834Z,63.87
2019-03-13T02:06:59.953Z,63.58
2019-03-13T02:09:27.978Z,63.51
2019-03-13T02:11:56.106Z,63.46
2019-03-13T02:14:24.118Z,63.19
2019-03-13T02:16:52.250Z,63.07
2019-03-13T02:19:20.176Z,62.72
2019-03-13T02:21:48.303Z,62.48
2019-03-13T02:24:16.361Z,62.36
2019-03-13T02:26:44.789Z,61.72
2019-03-13T02:29:13.318Z,61.85
2019-03-13T02:31:41.458Z,61.56
2019-03-13T02:34:09.498Z,61.65
2019-03-13T02:36:37.605Z,61.73
2019-03-13T02:39:06.011Z,61.79
2019-03-13T02:41:34.114Z,61.73
2019-03-13T02:44:02.130Z,62.09
2019-03-13T02:46:30.125Z,61.58
2019-03-13T02:48:58.023Z,61.68
2019-03-13T02:51:26.026Z,61.35
2019-03-13T02:53:54.091Z,61.09
2019-03-13T02:56:22.075Z,60.69
2019-03-13T02:58:50.314Z,60.47
2019-03-13T03:01:38.342Z,60.23
2019-03-13T03:04:08.901Z,60.66
2019-03-13T03:06:36.909Z,60.50
2019-03-13T03:09:07.547Z,60.74
2019-03-13T03:11:35.622Z,60.51
2019-03-13T03:14:03.650Z,60.48
2019-03-13T03:16:31.681Z,60.09
2019-03-13T03:18:59.705Z,60.06
2019-03-13T03:21:28.355Z,60.00
2019-03-13T03:23:56.543Z,59.97
2019-03-13T03:26:24.580Z,59.95
2019-03-13T03:28:52.604Z,60.02
2019-03-13T03:31:20.649Z,59.81
2019-03-13T03:34:02.041Z,59.86
2019-03-13T03:36:31.070Z,59.30
2019-03-13T03:39:00.004Z,58.78
2019-03-13T03:41:28.400Z,58.70
2019-03-13T03:43:56.710Z,58.68
2019-03-13T03:46:24.736Z,58.91
2019-03-13T03:48:52.846Z,58.97
2019-03-13T03:51:20.981Z,59.23
2019-03-13T03:53:48.949Z,58.64
2019-03-13T03:56:17.486Z,58.24
2019-03-13T03:58:46.066Z,58.08
2019-03-13T04:01:14.153Z,58.21
2019-03-13T04:03:42.316Z,58.27
2019-03-13T04:06:10.456Z,57.92
2019-03-13T04:08:38.536Z,58.40
2019-03-13T04:11:07.483Z,58.48
2019-03-13T04:13:35.587Z,58.67
2019-03-13T04:16:03.613Z,58.93
2019-03-13T04:18:31.600Z,59.24
2019-03-13T04:20:59.651Z,59.24
2019-03-13T04:23:27.665Z,59.06
2019-03-13T04:25:55.705Z,59.02
2019-03-13T04:28:23.808Z,58.71
2019-03-13T04:30:52.338Z,58.83
2019-03-13T04:33:20.334Z,58.34
2019-03-13T04:35:48.279Z,57.88
2019-03-13T04:38:16.177Z,57.48
2019-03-13T04:40:44.327Z,56.97
2019-03-13T04:43:12.504Z,56.73
2019-03-13T04:45:40.421Z,57.30
2019-03-13T04:48:09.146Z,57.12
2019-03-13T04:50:37.216Z,57.37
2019-03-13T04:53:05.339Z,57.16
2019-03-13T04:55:33.385Z,57.19
2019-03-13T04:58:01.491Z,57.11
2019-03-13T05:00:29.549Z,57.33
2019-03-13T05:02:57.562Z,56.95
2019-03-13T05:05:57.087Z,57.25
2019-03-13T05:08:44.546Z,56.87
2019-03-13T05:11:04.550Z,56.84
2019-03-13T05:13:32.529Z,57.12
2019-03-13T05:16:00.606Z,57.17
2019-03-13T05:18:28.512Z,56.92
2019-03-13T05:20:56.551Z,56.85
2019-03-13T05:23:25.970Z,57.00
2019-03-13T05:25:54.096Z,56.87
2019-03-13T05:28:22.085Z,56.29
2019-03-13T05:30:52.980Z,56.19
2019-03-13T05:33:20.220Z,55.61
2019-03-13T05:35:48.316Z,55.72
2019-03-13T05:38:16.138Z,55.38
2019-03-13T05:40:44.213Z,55.69
2019-03-13T05:43:12.146Z,56.08
2019-03-13T05:45:40.964Z,56.12
2019-03-13T05:48:08.949Z,55.90
2019-03-13T05:50:37.471Z,55.89
2019-03-13T05:53:05.438Z,55.83
2019-03-13T05:55:33.541Z,56.32
2019-03-13T05:58:01.463Z,56.38
2019-03-13T06:00:29.803Z,56.98
2019-03-13T06:02:58.752Z,56.88
2019-03-13T06:05:26.927Z,57.37
2019-03-13T06:07:55.075Z,57.57
2019-03-13T06:10:23.166Z,58.03
2019-03-13T06:12:51.114Z,58.47
2019-03-13T06:15:19.111Z,58.83
2019-03-13T06:17:47.134Z,58.91
2019-03-13T06:20:15.268Z,59.31
2019-03-13T06:22:43.305Z,60.87
2019-03-13T06:25:11.688Z,61.68
2019-03-13T06:27:39.641Z,62.68
2019-03-13T06:30:09.074Z,63.38
2019-03-13T06:32:37.023Z,64.46
2019-03-13T06:35:05.410Z,63.96
2019-03-13T06:37:33.636Z,64.57
2019-03-13T06:40:06.910Z,64.90
2019-03-13T06:42:34.955Z,64.85
2019-03-13T06:45:03.118Z,65.19
2019-03-13T06:47:31.076Z,65.12
2019-03-13T06:49:59.304Z,68.59
2019-03-13T06:52:27.319Z,80.30
2019-03-13T06:54:55.433Z,77.92
2019-03-13T06:57:23.347Z,78.23
2019-03-13T07:00:22.597Z,75.16
2019-03-13T07:03:09.885Z,73.01
2019-03-13T07:05:56.699Z,70.46
2019-03-13T07:08:59.393Z,65.98
2019-03-13T07:11:47.598Z,66.12
2019-03-13T07:14:26.522Z,63.73
2019-03-13T07:17:06.470Z,63.42
2019-03-13T07:19:59.585Z,63.59
2019-03-13T07:22:45.812Z,63.92
2019-03-13T07:25:31.845Z,64.88
2019-03-13T07:28:29.249Z,65.05
2019-03-13T07:31:34.754Z,65.37
2019-03-13T07:34:24.893Z,65.61
2019-03-13T07:37:02.846Z,66.24
2019-03-13T07:40:05.136Z,66.47
2019-03-13T07:42:55.552Z,67.44
2019-03-13T07:45:55.392Z,67.30
2019-03-13T07:48:45.682Z,67.90
2019-03-13T07:51:28.581Z,67.85
2019-03-13T07:54:16.099Z,67.54
2019-03-13T07:57:01.954Z,68.21
2019-03-13T07:59:55.249Z,68.70
2019-03-13T08:02:42.565Z,68.52
2019-03-13T08:05:18.072Z,67.57
2019-03-13T08:08:05.590Z,67.77
2019-03-13T08:11:08.158Z,67.86
2019-03-13T08:13:54.399Z,67.67
2019-03-13T08:16:46.692Z,67.57
2019-03-13T08:19:40.443Z,67.39
2019-03-13T08:22:26.344Z,66.94
2019-03-13T08:25:29.030Z,66.95
2019-03-13T08:31:37.132Z,67.08
2019-03-13T08:34:36.527Z,66.75
2019-03-13T08:37:17.104Z,66.47
2019-03-13T08:40:13.895Z,66.82
2019-03-13T08:43:00.561Z,66.99
2019-03-13T08:45:46.943Z,66.61
2019-03-13T08:48:24.549Z,66.17
2019-03-13T08:51:16.685Z,66.30
2019-03-13T08:54:04.177Z,65.97
2019-03-13T08:56:49.979Z,66.55
2019-03-13T08:59:33.280Z,66.19
2019-03-13T09:02:05.742Z,66.08
2019-03-13T09:04:59.306Z,67.12
2019-03-13T09:07:44.374Z,66.42
2019-03-13T09:10:31.513Z,66.27
2019-03-13T09:13:11.434Z,66.29
2019-03-13T09:15:46.960Z,66.11
2019-03-13T09:18:37.209Z,65.72
2019-03-13T09:21:20.160Z,65.59
2019-03-13T09:24:23.016Z,65.59
2019-03-13T09:27:09.344Z,65.60
2019-03-13T09:30:02.544Z,64.67
2019-03-13T09:32:52.914Z,64.27
2019-03-13T09:35:55.423Z,64.02
2019-03-13T09:38:31.682Z,64.32
2019-03-13T09:41:10.787Z,60.58
2019-03-13T09:43:59.605Z,59.22
2019-03-13T09:46:44.454Z,58.08
2019-03-13T09:49:53.765Z,57.62
2019-03-13T09:52:39.842Z,58.11
2019-03-13T09:55:34.485Z,58.38
2019-03-13T09:58:25.571Z,56.41
2019-03-13T10:01:13.958Z,55.69
2019-03-13T10:03:54.736Z,55.11
2019-03-13T10:06:37.758Z,55.68
2019-03-13T10:09:21.973Z,56.26
2019-03-13T10:11:57.930Z,56.02
2019-03-13T10:14:47.864Z,54.38
2019-03-13T10:17:30.435Z,53.83
2019-03-13T10:20:35.586Z,54.51
2019-03-13T10:23:21.770Z,54.21
2019-03-13T10:26:08.510Z,54.14
2019-03-13T10:28:48.686Z,54.22
2019-03-13T10:31:24.766Z,55.47
2019-03-13T10:34:07.860Z,53.49
2019-03-13T10:37:00.956Z,52.48
2019-03-13T10:39:43.526Z,52.45
2019-03-13T10:42:24.214Z,50.69
2019-03-13T10:45:07.815Z,50.64
2019-03-13T10:47:44.660Z,50.82
2019-03-13T10:50:31.180Z,51.14
2019-03-13T10:53:21.293Z,51.02
2019-03-13T10:56:07.955Z,51.63
2019-03-13T10:58:58.246Z,52.10
2019-03-13T11:02:00.845Z,51.57
2019-03-13T11:04:38.581Z,50.50
2019-03-13T11:07:28.585Z,50.55
2019-03-13T11:10:14.061Z,48.67
2019-03-13T11:13:07.332Z,48.48
2019-03-13T11:16:06.978Z,49.10
2019-03-13T11:18:49.499Z,49.01
2019-03-13T11:21:34.285Z,46.87
2019-03-13T11:24:14.750Z,46.55
2019-03-13T11:27:02.273Z,45.99
2019-03-13T11:29:40.126Z,45.93
2019-03-13T11:32:43.133Z,45.75
2019-03-13T11:35:36.550Z,45.21
2019-03-13T11:38:24.207Z,45.82
2019-03-13T11:41:09.207Z,44.65
2019-03-13T11:43:52.129Z,46.00
2019-03-13T11:46:45.621Z,44.06
2019-03-13T11:49:39.415Z,43.04
2019-03-13T11:52:30.522Z,42.88
2019-03-13T11:55:17.936Z,44.32
2019-03-13T11:58:20.297Z,44.79
2019-03-13T12:01:17.181Z,44.28
2019-03-13T12:04:21.639Z,45.05
2019-03-13T12:06:56.767Z,44.70
2019-03-13T12:09:42.136Z,44.28
2019-03-13T12:12:47.919Z,45.40
2019-03-13T12:15:24.993Z,46.10
2019-03-13T12:18:10.265Z,46.50
2019-03-13T12:21:00.840Z,45.98
2019-03-13T12:23:48.161Z,44.53
2019-03-13T12:26:50.904Z,44.81
2019-03-13T12:29:27.875Z,44.81
2019-03-13T12:32:27.311Z,43.77
2019-03-13T12:35:13.148Z,43.47
2019-03-13T12:38:01.201Z,43.14
2019-03-13T12:40:48.416Z,42.23
2019-03-13T12:43:32.396Z,41.87
2019-03-13T12:46:19.867Z,41.87
2019-03-13T12:48:57.534Z,41.26
2019-03-13T12:51:38.662Z,41.55
2019-03-13T12:54:16.184Z,41.61
2019-03-13T12:57:12.580Z,41.60
2019-03-13T12:59:58.915Z,41.47
2019-03-13T13:02:55.395Z,41.47
2019-03-13T13:05:51.502Z,42.09
2019-03-13T13:08:41.700Z,41.90
2019-03-13T13:11:27.990Z,40.74
2019-03-13T13:14:15.243Z,40.74
2019-03-13T13:17:02.693Z,40.29
2019-03-13T13:19:30.721Z,40.41
2019-03-13T13:21:58.884Z,40.41
2019-03-13T13:24:26.742Z,40.21
2019-03-13T13:26:54.771Z,40.62
2019-03-13T13:29:22.902Z,40.62
2019-03-13T13:31:51.010Z,40.05
2019-03-13T13:34:19.140Z,39.64
2019-03-13T13:36:47.204Z,39.64
2019-03-13T13:39:15.229Z,39.05
2019-03-13T13:41:43.278Z,37.61
2019-03-13T13:44:11.363Z,36.93
2019-03-13T13:46:40.241Z,36.93
2019-03-13T13:49:08.346Z,36.32
2019-03-13T13:51:37.158Z,36.52
2019-03-13T13:54:05.347Z,36.96
2019-03-13T13:56:33.459Z,36.96
2019-03-13T13:59:01.400Z,37.23
2019-03-13T14:01:29.430Z,37.68
2019-03-13T14:03:57.866Z,37.14
2019-03-13T14:06:26.079Z,38.60
2019-03-13T14:08:54.243Z,40.23
2019-03-13T14:11:22.433Z,38.89
2019-03-13T14:13:50.459Z,39.28
2019-03-13T14:16:18.693Z,36.97
2019-03-13T14:18:46.878Z,36.97
2019-03-13T14:21:15.027Z,36.35
2019-03-13T14:23:43.049Z,36.26
2019-03-13T14:26:11.144Z,36.57
2019-03-13T14:28:39.789Z,36.57
2019-03-13T14:31:08.035Z,37.67
2019-03-13T14:33:36.388Z,36.66
2019-03-13T14:36:04.476Z,36.66
2019-03-13T14:38:32.448Z,37.12
2019-03-13T14:41:00.573Z,37.38
2019-03-13T14:43:28.693Z,38.73
2019-03-13T14:45:56.922Z,38.83
2019-03-13T14:48:24.985Z,38.49
2019-03-13T14:50:53.146Z,38.46
2019-03-13T14:53:21.224Z,38.46
2019-03-13T14:55:49.345Z,39.10
2019-03-13T14:58:17.400Z,38.98
2019-03-13T15:00:45.487Z,38.98
2019-03-13T15:03:13.585Z,38.37
2019-03-13T15:05:42.084Z,38.37
2019-03-13T15:08:10.218Z,34.72
2019-03-13T15:10:38.366Z,35.14
2019-03-13T15:13:06.532Z,35.76
2019-03-13T15:15:34.660Z,36.67
2019-03-13T15:18:02.670Z,36.67
2019-03-13T15:20:30.905Z,37.17
2019-03-13T15:22:58.963Z,37.55
2019-03-13T15:25:26.934Z,37.55
2019-03-13T15:27:54.982Z,38.17
2019-03-13T15:30:25.376Z,38.28
2019-03-13T15:32:53.629Z,38.44
2019-03-13T15:35:21.757Z,39.10
2019-03-13T15:37:49.692Z,39.51
2019-03-13T15:40:17.883Z,40.14
2019-03-13T15:42:46.396Z,40.61
2019-03-13T15:45:16.028Z,40.78
2019-03-13T15:47:44.167Z,40.23
2019-03-13T15:50:12.897Z,40.08
2019-03-13T15:52:41.017Z,40.08
2019-03-13T15:55:10.199Z,39.95
2019-03-13T15:57:38.791Z,39.50
2019-03-13T16:00:12.262Z,40.17
2019-03-13T16:02:40.392Z,39.35
2019-03-13T16:05:08.552Z,39.73
2019-03-13T16:07:36.758Z,40.17
2019-03-13T16:10:05.424Z,40.79
2019-03-13T16:12:33.532Z,40.86
2019-03-13T16:15:01.473Z,41.34
2019-03-13T16:17:29.671Z,41.93
2019-03-13T16:19:57.741Z,42.52
2019-03-13T16:22:25.874Z,42.23
2019-03-13T16:24:53.907Z,42.38
2019-03-13T16:27:22.079Z,42.58
2019-03-13T16:29:50.149Z,42.85
2019-03-13T16:32:19.371Z,42.91
2019-03-13T16:34:47.401Z,42.49
2019-03-13T16:37:15.598Z,42.21
2019-03-13T16:39:43.742Z,42.01
2019-03-13T16:42:11.853Z,42.21
2019-03-13T16:44:39.867Z,42.28
2019-03-13T16:47:07.989Z,42.58
2019-03-13T16:49:39.059Z,43.05
2019-03-13T16:52:06.045Z,43.47
2019-03-13T16:54:34.077Z,43.44
2019-03-13T16:57:02.180Z,42.33
2019-03-13T16:59:30.118Z,42.72
2019-03-13T17:01:58.260Z,42.62
2019-03-13T17:04:26.404Z,42.64
2019-03-13T17:06:54.513Z,43.00
2019-03-13T17:09:22.616Z,43.17
2019-03-13T17:11:51.240Z,43.58
2019-03-13T17:14:20.924Z,43.85
2019-03-13T17:16:48.990Z,44.09
2019-03-13T17:19:17.061Z,44.42
2019-03-13T17:21:45.202Z,44.68
2019-03-13T17:24:13.236Z,44.79
2019-03-13T17:26:41.937Z,44.92
2019-03-13T17:29:09.931Z,45.13
2019-03-13T17:31:38.131Z,45.13
2019-03-13T17:34:06.263Z,45.29
2019-03-13T17:36:34.934Z,44.11
2019-03-13T17:39:04.753Z,44.38
2019-03-13T17:41:32.803Z,44.51
2019-03-13T17:44:00.950Z,44.39
2019-03-13T17:46:29.023Z,44.44
2019-03-13T17:48:57.170Z,44.99
2019-03-13T17:51:25.602Z,44.77
2019-03-13T17:53:53.662Z,44.53
2019-03-13T17:56:21.691Z,44.52
2019-03-13T17:58:49.839Z,44.60
2019-03-13T18:01:18.894Z,44.75
2019-03-13T18:03:49.862Z,45.05
2019-03-13T18:06:29.434Z,45.54
2019-03-13T18:08:57.590Z,45.45
2019-03-13T18:11:25.675Z,45.88
2019-03-13T18:13:54.470Z,45.90
2019-03-13T18:16:22.547Z,46.29
2019-03-13T18:18:50.721Z,46.45
2019-03-13T18:21:20.243Z,46.78
2019-03-13T18:23:48.427Z,47.07
2019-03-13T18:26:16.514Z,47.29
2019-03-13T18:28:45.348Z,47.12
2019-03-13T18:31:13.422Z,47.16
2019-03-13T18:33:41.519Z,47.04
2019-03-13T18:36:09.525Z,47.21
2019-03-13T18:38:37.645Z,46.60
2019-03-13T18:41:05.766Z,46.60
2019-03-13T18:43:33.898Z,46.59
2019-03-13T18:46:01.960Z,46.90
2019-03-13T18:48:29.939Z,47.48
2019-03-13T18:50:57.989Z,47.06
2019-03-13T18:53:25.996Z,47.23
2019-03-13T18:55:54.214Z,47.16
2019-03-13T18:58:22.252Z,47.54
2019-03-13T19:00:50.331Z,48.17
2019-03-13T19:03:18.475Z,49.04
2019-03-13T19:05:46.519Z,49.12
2019-03-13T19:08:17.910Z,49.80
2019-03-13T19:10:46.064Z,50.58
2019-03-13T19:13:14.354Z,50.92
2019-03-13T19:15:43.917Z,51.75
2019-03-13T19:18:12.043Z,52.83
2019-03-13T19:20:41.583Z,52.46
2019-03-13T19:23:09.697Z,53.47
2019-03-13T19:25:37.660Z,53.59
2019-03-13T19:28:05.791Z,54.30
2019-03-13T19:30:33.865Z,54.03
2019-03-13T19:33:02.034Z,55.03
2019-03-13T19:35:30.086Z,54.78
2019-03-13T19:37:58.612Z,54.95
2019-03-13T19:40:26.667Z,55.61
2019-03-13T19:42:54.872Z,55.43
2019-03-13T19:45:31.424Z,55.53
2019-03-13T19:48:01.281Z,55.31
2019-03-13T19:50:29.535Z,54.90
2019-03-13T19:52:57.594Z,54.50
2019-03-13T19:55:25.860Z,54.51
2019-03-13T19:57:53.993Z,53.88
2019-03-13T20:00:22.834Z,53.84
2019-03-13T20:03:00.113Z,53.57
2019-03-13T20:05:21.229Z,53.86
2019-03-13T20:07:50.362Z,53.80
2019-03-13T20:10:21.323Z,53.77
2019-03-13T20:13:02.392Z,54.27
2019-03-13T20:15:30.642Z,54.81
2019-03-13T20:17:58.809Z,55.21
2019-03-13T20:20:26.921Z,55.34
2019-03-13T20:22:57.214Z,56.04
2019-03-13T20:25:25.621Z,55.92
2019-03-13T20:27:54.806Z,56.77
2019-03-13T20:30:23.502Z,56.51
2019-03-13T20:32:51.590Z,56.64
2019-03-13T20:35:19.856Z,56.11
2019-03-13T20:37:47.776Z,56.36
2019-03-13T20:40:19.310Z,55.85
2019-03-13T20:42:47.364Z,55.68
2019-03-13T20:45:18.533Z,55.19
2019-03-13T20:47:46.689Z,55.16
2019-03-13T20:50:14.770Z,55.11
2019-03-13T20:52:45.678Z,55.67
2019-03-13T20:55:13.380Z,55.51
2019-03-13T20:57:41.426Z,55.06
2019-03-13T21:00:11.802Z,55.44
2019-03-13T21:02:39.859Z,55.69
2019-03-13T21:05:07.982Z,55.39
2019-03-13T21:07:36.038Z,55.50
2019-03-13T21:10:04.622Z,55.13
2019-03-13T21:12:32.755Z,55.13
2019-03-13T21:15:08.781Z,54.82
2019-03-13T21:17:36.786Z,54.56
2019-03-13T21:20:05.713Z,54.59
2019-03-13T21:22:33.740Z,54.67
2019-03-13T21:25:01.711Z,54.34
2019-03-13T21:27:29.759Z,54.57
2019-03-13T21:29:58.217Z,54.74
2019-03-13T21:32:26.145Z,54.42
2019-03-13T21:34:54.224Z,54.29
2019-03-13T21:37:22.183Z,54.40
2019-03-13T21:39:50.397Z,54.46
2019-03-13T21:42:18.439Z,54.75
2019-03-13T21:44:46.451Z,54.49
2019-03-13T21:47:14.397Z,54.82
2019-03-13T21:49:42.475Z,54.67
2019-03-13T21:52:11.298Z,54.38
2019-03-13T21:54:39.430Z,54.26
2019-03-13T21:57:07.386Z,54.40
2019-03-13T21:59:35.407Z,54.55
2019-03-13T22:02:03.427Z,54.62
2019-03-13T22:04:31.550Z,54.63
2019-03-13T22:06:59.640Z,54.81
2019-03-13T22:09:27.655Z,54.95
2019-03-13T22:11:55.738Z,54.84
2019-03-13T22:14:23.648Z,54.96
2019-03-13T22:16:54.792Z,55.07
2019-03-13T22:19:22.970Z,55.23
2019-03-13T22:21:50.955Z,55.12
2019-03-13T22:24:18.951Z,55.03
2019-03-13T22:26:47.030Z,54.77
2019-03-13T22:29:15.047Z,54.87
2019-03-13T22:31:43.152Z,54.89
2019-03-13T22:34:11.197Z,54.79
2019-03-13T22:36:39.315Z,55.16
2019-03-13T22:39:07.683Z,54.93
2019-03-13T22:41:36.771Z,54.51
2019-03-13T22:44:05.726Z,54.76
2019-03-13T22:46:34.421Z,54.63
2019-03-13T22:49:02.341Z,55.18
2019-03-13T22:51:30.412Z,55.47
2019-03-13T22:53:58.433Z,55.86
2019-03-13T22:56:26.517Z,56.24
2019-03-13T22:58:54.433Z,56.29
2019-03-13T23:01:23.727Z,56.52
2019-03-13T23:03:51.739Z,56.65
2019-03-13T23:06:20.125Z,56.79
2019-03-13T23:08:48.260Z,57.05
2019-03-13T23:11:17.093Z,57.42
2019-03-13T23:13:45.149Z,57.60
2019-03-13T23:16:13.271Z,57.57
2019-03-13T23:18:41.230Z,57.67
2019-03-13T23:21:09.417Z,57.95
2019-03-13T23:23:37.451Z,58.22
2019-03-13T23:26:05.582Z,58.34
2019-03-13T23:28:33.527Z,58.33
2019-03-13T23:31:01.656Z,58.72
2019-03-13T23:33:29.748Z,59.10
2019-03-13T23:35:58.508Z,59.42
2019-03-13T23:38:26.617Z,59.39
2019-03-13T23:40:54.925Z,59.67
2019-03-13T23:43:24.716Z,60.39
2019-03-13T23:45:52.761Z,60.22
2019-03-13T23:48:20.742Z,60.23
2019-03-13T23:50:48.611Z,60.39
2019-03-13T23:53:16.763Z,60.87
2019-03-13T23:55:44.783Z,60.67
2019-03-13T23:58:12.905Z,61.13
